Time,TemperatureF,DewpointF,PressureIn,WindDirection,WindDirectionDegrees,WindSpeedMPH,WindSpeedGustMPH,Humidity,HourlyPrecipIn,Conditions,Clouds,dailyrainin,SolarRadiationWatts/m^2,SoftwareType,DateUTC
2013-03-07 00:00:00,32.0,28.0,-100.00,NW,315,3.0,-999.0,86,-99.99,,,-99.99,0.000000,,2013-03-07 05:00:00,
2013-03-07 00:32:00,32.0,28.0,-100.00,NW,315,3.0,-999.0,86,-99.99,,,-99.99,0.000000,,2013-03-07 05:32:00,
2013-03-07 00:42:00,32.0,28.0,-100.00,NW,315,3.0,-999.0,86,-99.99,,,-99.99,0.000000,,2013-03-07 05:42:00,
2013-03-07 00:52:00,32.0,28.0,-100.00,NW,315,3.0,-999.0,86,-99.99,,,-99.99,0.000000,,2013-03-07 05:52:00,
2013-03-07 01:00:00,32.0,28.0,-100.00,NW,315,3.0,-999.0,87,-99.99,,,-99.99,0.000000,,2013-03-07 06:00:00,
2013-03-07 01:42:00,32.0,28.0,-100.00,NW,315,3.0,-999.0,87,-99.99,,,-99.99,0.000000,,2013-03-07 06:42:00,
2013-03-07 01:52:00,32.0,28.0,-100.00,NW,315,3.0,-999.0,87,-99.99,,,-99.99,0.000000,,2013-03-07 06:52:00,
2013-03-07 02:00:00,31.0,29.0,-100.00,NW,315,3.0,-999.0,89,-99.99,,,-99.99,0.000000,,2013-03-07 07:00:00,
2013-03-07 02:43:00,31.0,29.0,-100.00,NW,315,3.0,-999.0,89,-99.99,,,-99.99,0.000000,,2013-03-07 07:43:00,
2013-03-07 02:53:00,31.0,29.0,-100.00,NW,315,3.0,-999.0,89,-99.99,,,-99.99,0.000000,,2013-03-07 07:53:00,
2013-03-07 03:00:00,31.0,29.0,-100.00,NNW,337,4.0,-999.0,90,-99.99,,,-99.99,0.000000,,2013-03-07 08:00:00,
2013-03-07 03:54:00,31.0,29.0,-100.00,NNW,337,4.0,-999.0,90,-99.99,,,-99.99,0.000000,,2013-03-07 08:54:00,
2013-03-07 04:00:00,31.0,28.0,-100.00,NNW,337,5.0,-999.0,87,-99.99,,,-99.99,0.000000,,2013-03-07 09:00:00,
2013-03-07 04:43:00,31.0,28.0,-100.00,NNW,337,5.0,-999.0,87,-99.99,,,-99.99,0.000000,,2013-03-07 09:43:00,
2013-03-07 04:53:00,31.0,28.0,-100.00,NNW,337,5.0,-999.0,87,-99.99,,,-99.99,0.000000,,2013-03-07 09:53:00,
2013-03-07 05:00:00,31.0,28.0,-100.00,NW,315,6.0,-999.0,87,-99.99,,,-99.99,0.000000,,2013-03-07 10:00:00,
2013-03-07 05:43:00,31.0,28.0,-100.00,NW,315,6.0,-999.0,87,-99.99,,,-99.99,0.000000,,2013-03-07 10:43:00,
2013-03-07 05:53:00,31.0,28.0,-100.00,NW,315,6.0,-999.0,87,-99.99,,,-99.99,0.000000,,2013-03-07 10:53:00,
2013-03-07 06:00:00,31.0,28.0,-100.00,NW,315,5.0,-999.0,88,-99.99,,,-99.99,0.000000,,2013-03-07 11:00:00,
2013-03-07 06:44:00,31.0,28.0,-100.00,NW,315,5.0,-999.0,88,-99.99,,,-99.99,0.000000,,2013-03-07 11:44:00,
2013-03-07 06:55:00,31.0,28.0,-100.00,NW,315,5.0,-999.0,88,-99.99,,,-99.99,0.000000,,2013-03-07 11:55:00,
2013-03-07 07:00:00,31.0,27.0,-100.00,NNW,337,4.0,-999.0,85,-99.99,,,-99.99,0.000000,,2013-03-07 12:00:00,
2013-03-07 07:34:00,31.0,27.0,-100.00,NNW,337,4.0,-999.0,85,-99.99,,,-99.99,0.000000,,2013-03-07 12:34:00,
2013-03-07 07:43:00,31.0,27.0,-100.00,NNW,337,4.0,-999.0,85,-99.99,,,-99.99,0.000000,,2013-03-07 12:43:00,
2013-03-07 07:53:00,31.0,27.0,-100.00,NNW,337,4.0,-999.0,85,-99.99,,,-99.99,0.000000,,2013-03-07 12:53:00,
2013-03-07 09:00:00,31.0,25.0,-100.00,NNW,337,4.0,-999.0,77,-99.99,,,-99.99,104.400002,,2013-03-07 14:00:00,
2013-03-07 09:43:00,31.0,25.0,-100.00,NNW,337,4.0,-999.0,77,-99.99,,,-99.99,104.400002,,2013-03-07 14:43:00,
2013-03-07 09:54:00,31.0,25.0,-100.00,NNW,337,4.0,-999.0,77,-99.99,,,-99.99,104.400002,,2013-03-07 14:54:00,
2013-03-07 10:00:00,33.0,24.0,-100.00,North,0,4.0,-999.0,68,-99.99,,,-99.99,196.039993,,2013-03-07 15:00:00,
2013-03-07 10:43:00,33.0,24.0,-100.00,North,0,4.0,-999.0,68,-99.99,,,-99.99,196.039993,,2013-03-07 15:43:00,
2013-03-07 10:53:00,33.0,24.0,-100.00,North,0,4.0,-999.0,68,-99.99,,,-99.99,196.039993,,2013-03-07 15:53:00,
2013-03-07 11:00:00,34.0,22.0,-100.00,North,0,5.0,-999.0,60,-99.99,,,-99.99,286.519989,,2013-03-07 16:00:00,
2013-03-07 11:43:00,34.0,22.0,-100.00,North,0,5.0,-999.0,60,-99.99,,,-99.99,286.519989,,2013-03-07 16:43:00,
2013-03-07 11:53:00,34.0,22.0,-100.00,North,0,5.0,-999.0,60,-99.99,,,-99.99,286.519989,,2013-03-07 16:53:00,
2013-03-07 12:00:00,35.0,20.0,-100.00,North,0,6.0,-999.0,52,-99.99,,,-99.99,325.959991,,2013-03-07 17:00:00,
2013-03-07 12:44:00,35.0,20.0,-100.00,North,0,6.0,-999.0,52,-99.99,,,-99.99,325.959991,,2013-03-07 17:44:00,
2013-03-07 12:55:00,35.0,20.0,-100.00,North,0,6.0,-999.0,52,-99.99,,,-99.99,325.959991,,2013-03-07 17:55:00,
2013-03-07 13:00:00,34.0,20.0,-100.00,NNW,337,6.0,-999.0,54,-99.99,,,-99.99,299.279999,,2013-03-07 18:00:00,
2013-03-07 13:43:00,34.0,20.0,-100.00,NNW,337,6.0,-999.0,54,-99.99,,,-99.99,299.279999,,2013-03-07 18:43:00,
2013-03-07 13:53:00,34.0,20.0,-100.00,NNW,337,6.0,-999.0,54,-99.99,,,-99.99,299.279999,,2013-03-07 18:53:00,
2013-03-07 14:00:00,35.0,19.0,-100.00,NNW,337,6.0,-999.0,52,-99.99,,,-99.99,342.200012,,2013-03-07 19:00:00,
2013-03-07 14:44:00,35.0,19.0,-100.00,NNW,337,6.0,-999.0,52,-99.99,,,-99.99,342.200012,,2013-03-07 19:44:00,
2013-03-07 14:53:00,35.0,19.0,-100.00,NNW,337,6.0,-999.0,52,-99.99,,,-99.99,342.200012,,2013-03-07 19:53:00,
2013-03-07 15:00:00,35.0,20.0,-100.00,NW,315,6.0,-999.0,54,-99.99,,,-99.99,264.480011,,2013-03-07 20:00:00,
2013-03-07 15:43:00,35.0,20.0,-100.00,NW,315,6.0,-999.0,54,-99.99,,,-99.99,264.480011,,2013-03-07 20:43:00,
2013-03-07 15:54:00,35.0,20.0,-100.00,NW,315,6.0,-999.0,54,-99.99,,,-99.99,264.480011,,2013-03-07 20:54:00,
2013-03-07 16:00:00,35.0,23.0,-100.00,NW,315,7.0,-999.0,60,-99.99,,,-99.99,295.799988,,2013-03-07 21:00:00,
2013-03-07 16:43:00,35.0,23.0,-100.00,NW,315,7.0,-999.0,60,-99.99,,,-99.99,295.799988,,2013-03-07 21:43:00,
2013-03-07 16:53:00,35.0,23.0,-100.00,NW,315,7.0,-999.0,60,-99.99,,,-99.99,295.799988,,2013-03-07 21:53:00,
2013-03-07 17:00:00,34.0,23.0,-100.00,NW,315,5.0,-999.0,61,-99.99,,,-99.99,198.360001,,2013-03-07 22:00:00,
2013-03-07 17:44:00,34.0,23.0,-100.00,NW,315,5.0,-999.0,61,-99.99,,,-99.99,198.360001,,2013-03-07 22:44:00,
2013-03-07 17:55:00,34.0,23.0,-100.00,NW,315,5.0,-999.0,61,-99.99,,,-99.99,198.360001,,2013-03-07 22:55:00,
2013-03-07 18:00:00,34.0,23.0,-100.00,WNW,292,5.0,-999.0,65,-99.99,,,-99.99,110.199997,,2013-03-07 23:00:00,
2013-03-07 18:44:00,34.0,23.0,-100.00,WNW,292,5.0,-999.0,65,-99.99,,,-99.99,110.199997,,2013-03-07 23:44:00,
2013-03-07 18:54:00,34.0,23.0,-100.00,WNW,292,5.0,-999.0,65,-99.99,,,-99.99,110.199997,,2013-03-07 23:54:00,
2013-03-07 19:00:00,32.0,23.0,-100.00,WNW,292,4.0,-999.0,68,-99.99,,,-99.99,12.760000,,2013-03-08 00:00:00,
2013-03-07 19:44:00,32.0,23.0,-100.00,WNW,292,4.0,-999.0,68,-99.99,,,-99.99,12.760000,,2013-03-08 00:44:00,
2013-03-07 19:54:00,32.0,23.0,-100.00,WNW,292,4.0,-999.0,68,-99.99,,,-99.99,12.760000,,2013-03-08 00:54:00,
2013-03-07 20:00:00,30.0,22.0,-100.00,NW,315,3.0,-999.0,70,-99.99,,,-99.99,0.000000,,2013-03-08 01:00:00,
2013-03-07 20:42:00,30.0,22.0,-100.00,NW,315,3.0,-999.0,70,-99.99,,,-99.99,0.000000,,2013-03-08 01:42:00,
2013-03-07 20:52:00,30.0,22.0,-100.00,NW,315,3.0,-999.0,70,-99.99,,,-99.99,0.000000,,2013-03-08 01:52:00,
2013-03-07 21:00:00,28.0,22.0,-100.00,North,0,3.0,-999.0,77,-99.99,,,-99.99,0.000000,,2013-03-08 02:00:00,
2013-03-07 21:42:00,28.0,22.0,-100.00,North,0,3.0,-999.0,77,-99.99,,,-99.99,0.000000,,2013-03-08 02:42:00,
2013-03-07 21:53:00,28.0,22.0,-100.00,North,0,3.0,-999.0,77,-99.99,,,-99.99,0.000000,,2013-03-08 02:53:00,
2013-03-07 22:00:00,27.0,21.0,-100.00,NNE,22,4.0,-999.0,78,-99.99,,,-99.99,0.000000,,2013-03-08 03:00:00,
2013-03-07 22:43:00,27.0,21.0,-100.00,NNE,22,4.0,-999.0,78,-99.99,,,-99.99,0.000000,,2013-03-08 03:43:00,
2013-03-07 22:53:00,27.0,21.0,-100.00,NNE,22,4.0,-999.0,78,-99.99,,,-99.99,0.000000,,2013-03-08 03:53:00,
2013-03-07 23:00:00,26.0,20.0,-100.00,NE,45,3.0,-999.0,77,-99.99,,,-99.99,0.000000,,2013-03-08 04:00:00,
2013-03-07 23:42:00,26.0,20.0,-100.00,NE,45,3.0,-999.0,77,-99.99,,,-99.99,0.000000,,2013-03-08 04:42:00,
2013-03-07 23:52:00,26.0,20.0,-100.00,NE,45,3.0,-999.0,77,-99.99,,,-99.99,0.000000,,2013-03-08 04:52:00,